Time;durP1;ratioP1;P1;durP2;ratioP2;P2;SDS_P1;SDS_P2;PMS_P1;PMS_P2;Temp;Humidity;BMP_temperature;BMP_pressure;BME280_temperature;BME280_humidity;BME280_pressure;Samples;Min_cycle;Max_cycle;Signal;HPM_P1;HPM_P2
2022/06/07 00:00:38;;;;;;;2.10;1.90;;;21.40;66.30;;;-142.21;100.00;112049.66;5112010;28;20287;-71
2022/06/07 00:03:06;;;;;;;3.10;2.20;;;21.40;66.60;;;-142.21;100.00;112049.66;5111633;28;20227;-72
2022/06/07 00:05:33;;;;;;;2.27;1.90;;;21.30;66.60;;;-142.21;100.00;112049.66;5112356;28;20200;-72
2022/06/07 00:08:00;;;;;;;2.70;1.80;;;21.10;67.20;;;-142.21;100.00;112049.66;5113157;28;20196;-72
2022/06/07 00:10:28;;;;;;;2.67;2.10;;;21.10;67.40;;;-142.21;100.00;112049.66;5115559;28;20571;-72
2022/06/07 00:12:55;;;;;;;1.93;1.80;;;21.10;67.90;;;-142.21;100.00;112049.66;5115323;28;20196;-71
2022/06/07 00:15:23;;;;;;;2.80;1.83;;;21.10;67.80;;;-142.21;100.00;112049.66;5115571;28;20552;-72
2022/06/07 00:17:51;;;;;;;2.73;1.93;;;21.00;68.10;;;-142.21;100.00;112049.66;5115369;28;20286;-71
2022/06/07 00:20:19;;;;;;;3.37;2.20;;;21.00;68.60;;;-142.21;100.00;112049.66;5115806;28;20241;-72
2022/06/07 00:22:47;;;;;;;2.40;2.03;;;21.00;68.60;;;-142.21;100.00;112049.66;5115521;28;20287;-71
2022/06/07 00:25:17;;;;;;;2.47;1.90;;;20.90;69.00;;;-142.21;100.00;112049.66;5114881;28;20196;-71
2022/06/07 00:27:45;;;;;;;3.17;2.13;;;21.00;69.70;;;-142.21;100.00;112049.66;5114904;28;20202;-71
2022/06/07 00:30:14;;;;;;;3.83;1.90;;;21.00;69.50;;;-142.21;100.00;112049.66;5115653;28;20279;-72
2022/06/07 00:32:42;;;;;;;5.07;2.13;;;20.90;69.70;;;-142.21;100.00;112049.66;5104967;28;20204;-71
2022/06/07 00:35:15;;;;;;;2.70;1.80;;;20.90;69.50;;;-142.21;100.00;112049.66;5114745;27;20192;-71
2022/06/07 00:37:42;;;;;;;1.80;1.70;;;20.90;69.90;;;-142.21;100.00;112049.66;5115220;28;20204;-74
2022/06/07 00:40:12;;;;;;;2.10;1.90;;;20.90;69.80;;;-142.21;100.00;112049.66;5115464;28;20200;-72
2022/06/07 00:42:39;;;;;;;3.50;2.00;;;20.90;69.60;;;-142.21;100.00;112049.66;5115534;28;20199;-72
2022/06/07 00:45:08;;;;;;;1.83;1.73;;;20.90;69.80;;;-142.21;100.00;112049.66;5114841;28;20196;-72
2022/06/07 00:47:35;;;;;;;2.90;2.00;;;20.80;70.30;;;-142.21;100.00;112049.66;5115318;28;20199;-72
2022/06/07 00:50:09;;;;;;;1.70;1.60;;;20.80;69.70;;;-142.21;100.00;112049.66;5114840;28;20196;-72
2022/06/07 00:52:40;;;;;;;2.30;2.10;;;20.80;70.20;;;-142.21;100.00;112049.66;5115082;28;20568;-71
2022/06/07 00:55:10;;;;;;;3.00;1.80;;;20.80;70.10;;;-142.21;100.00;112049.66;5114457;28;20434;-71
2022/06/07 00:57:38;;;;;;;3.43;2.00;;;20.70;70.30;;;-142.21;100.00;112049.66;5115320;28;20555;-72
2022/06/07 01:00:11;;;;;;;1.73;1.50;;;20.70;70.70;;;-142.21;100.00;112049.66;5112244;28;20960;-72
2022/06/07 01:02:39;;;;;;;2.17;1.93;;;20.70;70.70;;;-142.21;100.00;112049.66;5111406;28;20225;-71
2022/06/07 01:05:08;;;;;;;2.43;1.73;;;20.70;70.40;;;-142.21;100.00;112049.66;5114586;28;20467;-71
2022/06/07 01:13:06;;;;;;;1.57;1.47;;;20.50;70.60;;;-142.21;100.00;112049.66;5112889;28;20267;-71
2022/06/07 01:15:33;;;;;;;1.80;1.70;;;20.50;70.50;;;-142.21;100.00;112049.66;5114133;28;20984;-72
2022/06/07 01:18:01;;;;;;;2.17;1.70;;;20.40;70.30;;;-142.21;100.00;112049.66;5113989;28;20441;-72
2022/06/07 01:20:29;;;;;;;1.70;1.57;;;20.40;71.40;;;-142.21;100.00;112049.66;5114126;28;20196;-72
2022/06/07 01:22:58;;;;;;;1.57;1.47;;;20.40;70.90;;;-142.21;100.00;112049.66;5113968;28;20256;-72
2022/06/07 01:25:25;;;;;;;1.90;1.70;;;20.40;70.70;;;-142.21;100.00;112049.66;5114349;28;20202;-72
2022/06/07 01:27:52;;;;;;;2.00;1.43;;;20.40;70.60;;;-142.21;100.00;112049.66;5113758;28;20477;-72
2022/06/07 01:30:20;;;;;;;1.77;1.50;;;20.30;70.50;;;-142.21;100.00;112049.66;5114171;28;20445;-72
2022/06/07 01:32:47;;;;;;;3.00;1.53;;;20.30;70.30;;;-142.21;100.00;112049.66;5114002;28;20446;-72
2022/06/07 01:35:14;;;;;;;1.60;1.50;;;20.30;70.50;;;-142.21;100.00;112049.66;5114533;28;20787;-72
2022/06/07 01:37:41;;;;;;;1.60;1.50;;;20.30;70.80;;;-142.21;100.00;112049.66;5114387;28;20204;-72
2022/06/07 01:42:59;;;;;;;2.30;1.47;;;20.30;71.00;;;-142.21;100.00;112049.66;5112630;28;20195;-72
2022/06/07 01:45:26;;;;;;;3.00;1.30;;;20.30;70.60;;;-142.21;100.00;112049.66;5114517;28;20603;-72
2022/06/07 01:47:54;;;;;;;1.37;1.27;;;20.30;71.00;;;-142.21;100.00;112049.66;5113706;28;20558;-72
2022/06/07 01:50:21;;;;;;;2.07;1.73;;;20.30;71.00;;;-142.21;100.00;112049.66;5114035;28;20215;-72
2022/06/07 01:52:48;;;;;;;1.40;1.30;;;20.40;71.10;;;-142.21;100.00;112049.66;5113559;28;20196;-72
2022/06/07 01:55:17;;;;;;;2.13;1.00;;;20.30;70.20;;;-142.21;100.00;112049.66;5113733;28;20555;-72
2022/06/07 01:57:44;;;;;;;1.67;1.57;;;20.40;70.40;;;-142.21;100.00;112049.66;5113674;28;20196;-72
2022/06/07 02:00:14;;;;;;;1.63;1.43;;;20.40;70.10;;;-142.21;100.00;112049.66;5113573;28;20445;-72
2022/06/07 02:02:41;;;;;;;1.50;1.40;;;20.40;70.30;;;-142.21;100.00;112049.66;5113924;28;20444;-72
2022/06/07 02:05:09;;;;;;;2.90;1.67;;;20.40;70.20;;;-142.21;100.00;112049.66;5112922;28;20445;-71
2022/06/07 02:07:36;;;;;;;2.00;1.20;;;20.40;70.10;;;-142.21;100.00;112049.66;5113803;27;20196;-71
2022/06/07 02:10:05;;;;;;;1.57;1.47;;;20.40;70.20;;;-142.21;100.00;112049.66;5112262;28;20290;-71
2022/06/07 02:12:34;;;;;;;2.57;1.50;;;20.40;70.30;;;-142.21;100.00;112049.66;5113769;28;20212;-71
2022/06/07 02:15:03;;;;;;;1.90;1.17;;;20.40;70.30;;;-142.21;100.00;112049.66;5110617;28;20206;-72
2022/06/07 02:17:30;;;;;;;1.60;1.50;;;20.40;70.10;;;-142.21;100.00;112049.66;5100129;28;20219;-72
2022/06/07 02:19:58;;;;;;;1.90;1.40;;;20.40;70.30;;;-142.21;100.00;112049.66;5113012;28;20203;-72
2022/06/07 02:22:25;;;;;;;2.93;1.43;;;20.40;70.00;;;-142.21;100.00;112049.66;5113505;28;20452;-72
2022/06/07 02:24:52;;;;;;;1.40;1.20;;;20.40;70.20;;;-142.21;100.00;112049.66;5112755;28;20441;-72
2022/06/07 02:27:22;;;;;;;1.30;1.20;;;20.50;70.40;;;-142.21;100.00;112049.66;5113283;28;20340;-72
2022/06/07 02:29:55;;;;;;;1.53;1.43;;;20.50;70.80;;;-142.21;100.00;112049.66;5112295;28;20196;-72
2022/06/07 02:32:29;;;;;;;1.70;1.40;;;20.50;70.60;;;-142.21;100.00;112049.66;5113022;28;20204;-72
2022/06/07 02:34:59;;;;;;;1.53;1.43;;;20.50;71.10;;;-142.21;100.00;112049.66;5112572;28;20426;-72
2022/06/07 02:37:29;;;;;;;1.60;1.30;;;20.50;71.50;;;-142.21;100.00;112049.66;5113421;28;20196;-72
2022/06/07 02:39:58;;;;;;;1.37;1.27;;;20.40;70.90;;;-142.21;100.00;112049.66;5076322;28;20609;-72
2022/06/07 02:42:28;;;;;;;1.63;1.33;;;20.50;71.20;;;-142.21;100.00;112049.66;5112911;28;20644;-72
2022/06/07 02:44:57;;;;;;;2.77;1.53;;;20.40;71.10;;;-142.21;100.00;112049.66;5111286;28;20223;-71
2022/06/07 02:47:24;;;;;;;1.63;1.43;;;20.40;71.10;;;-142.21;100.00;112049.66;5112817;28;21953;-72
2022/06/07 02:49:52;;;;;;;1.77;1.50;;;20.50;71.10;;;-142.21;100.00;112049.66;5111863;28;20200;-72
2022/06/07 02:52:20;;;;;;;1.40;1.30;;;20.50;71.90;;;-142.21;100.00;112049.66;5105588;28;20230;-72
2022/06/07 02:54:47;;;;;;;2.77;1.50;;;20.50;71.50;;;-142.21;100.00;112049.66;5113042;28;20192;-71
2022/06/07 02:57:15;;;;;;;1.40;1.30;;;20.50;71.50;;;-142.21;100.00;112049.66;5112675;28;20204;-70
2022/06/07 02:59:42;;;;;;;1.73;1.30;;;20.50;71.50;;;-142.21;100.00;112049.66;5113033;28;20253;-70
2022/06/07 03:02:10;;;;;;;1.57;1.47;;;20.50;71.20;;;-142.21;100.00;112049.66;5112404;28;20198;-70
2022/06/07 03:04:37;;;;;;;1.40;1.30;;;20.50;71.30;;;-142.21;100.00;112049.66;5112917;28;20195;-71
2022/06/07 03:07:05;;;;;;;1.70;1.40;;;20.50;70.70;;;-142.21;100.00;112049.66;5112365;28;20211;-71
2022/06/07 03:09:32;;;;;;;1.20;1.10;;;20.50;70.40;;;-142.21;100.00;112049.66;5112755;28;20199;-72
2022/06/07 03:12:00;;;;;;;1.80;1.50;;;20.50;69.90;;;-142.21;100.00;112049.66;5111507;28;20973;-72
2022/06/07 03:14:27;;;;;;;2.43;1.60;;;20.50;70.10;;;-142.21;100.00;112049.66;5113060;28;20200;-72
2022/06/07 03:16:54;;;;;;;1.97;1.70;;;20.50;70.30;;;-142.21;100.00;112049.66;5111802;28;20224;-72
2022/06/07 03:19:23;;;;;;;1.83;1.60;;;20.50;70.00;;;-142.21;100.00;112049.66;5112693;28;20210;-72
2022/06/07 03:21:50;;;;;;;1.50;1.40;;;20.40;69.80;;;-142.21;100.00;112049.66;5112281;28;20234;-72
2022/06/07 03:24:17;;;;;;;1.33;1.23;;;20.40;70.00;;;-142.21;100.00;112049.66;5112602;28;20279;-72
2022/06/07 03:26:44;;;;;;;2.53;1.40;;;20.40;70.00;;;-142.21;100.00;112049.66;5112867;28;20196;-72
2022/06/07 03:29:11;;;;;;;2.20;1.40;;;20.50;70.70;;;-142.21;100.00;112049.66;5111552;28;20451;-72
2022/06/07 03:31:38;;;;;;;2.23;1.30;;;20.50;71.00;;;-142.21;100.00;112049.66;5112407;28;20219;-72
2022/06/07 03:34:07;;;;;;;1.20;1.10;;;20.40;70.80;;;-142.21;100.00;112049.66;5112050;28;20448;-72
2022/06/07 03:36:36;;;;;;;3.77;1.50;;;20.50;71.30;;;-142.21;100.00;112049.66;5112579;28;20408;-72
2022/06/07 03:39:07;;;;;;;1.70;1.60;;;20.50;71.50;;;-142.21;100.00;112049.66;5111852;28;20282;-72
2022/06/07 03:41:35;;;;;;;2.53;1.50;;;20.50;71.90;;;-142.21;100.00;112049.66;5112471;28;20465;-72
2022/06/07 03:44:02;;;;;;;1.93;1.67;;;20.40;71.70;;;-142.21;100.00;112049.66;5115538;28;20224;-71
2022/06/07 03:46:32;;;;;;;2.77;1.50;;;20.40;71.70;;;-142.21;100.00;112049.66;5114267;28;20204;-72
2022/06/07 03:49:00;;;;;;;1.50;1.40;;;20.40;71.90;;;-142.21;100.00;112049.66;5115711;28;20285;-72
2022/06/07 03:51:30;;;;;;;1.53;1.43;;;20.30;71.70;;;-142.21;100.00;112049.66;5116048;28;20766;-72
2022/06/07 03:53:59;;;;;;;2.03;1.87;;;20.30;71.70;;;-142.21;100.00;112049.66;5115727;28;20441;-71
2022/06/07 03:56:27;;;;;;;1.00;1.00;;;20.30;72.10;;;-142.21;100.00;112049.66;5116016;28;20291;-72
2022/06/07 03:58:55;;;;;;;2.40;1.40;;;20.30;71.30;;;-142.21;100.00;112049.66;5115373;28;20202;-72
2022/06/07 04:01:25;;;;;;;1.47;1.37;;;20.30;70.40;;;-142.21;100.00;112049.66;5116002;28;20196;-72
2022/06/07 04:03:55;;;;;;;2.23;1.60;;;20.20;69.60;;;-142.21;100.00;112049.66;5116113;28;20249;-72
2022/06/07 04:06:27;;;;;;;1.50;1.40;;;20.20;69.70;;;-142.21;100.00;112049.66;5115433;28;20652;-71
2022/06/07 04:08:55;;;;;;;1.33;1.07;;;20.20;69.40;;;-142.21;100.00;112049.66;5115976;28;20199;-72
2022/06/07 04:11:26;;;;;;;2.10;1.30;;;20.20;69.60;;;-142.21;100.00;112049.66;5098922;28;20228;-72
2022/06/07 04:13:56;;;;;;;2.30;1.50;;;20.10;70.30;;;-142.21;100.00;112049.66;5116219;28;20194;-72
2022/06/07 04:16:27;;;;;;;2.17;1.10;;;20.10;69.70;;;-142.21;100.00;112049.66;5115002;28;20226;-72
2022/06/07 04:18:57;;;;;;;1.30;1.20;;;20.00;69.70;;;-142.21;100.00;112049.66;5115915;28;20434;-72
2022/06/07 04:21:25;;;;;;;1.50;1.40;;;20.00;70.10;;;-142.21;100.00;112049.66;5115264;28;20660;-72
2022/06/07 04:23:54;;;;;;;1.60;1.30;;;20.00;70.20;;;-142.21;100.00;112049.66;5116341;28;20871;-72
2022/06/07 04:26:29;;;;;;;2.97;1.60;;;20.00;70.30;;;-142.21;100.00;112049.66;5115623;28;20207;-71
2022/06/07 04:28:58;;;;;;;1.53;1.30;;;20.00;70.80;;;-142.21;100.00;112049.66;5115424;28;20191;-72
2022/06/07 04:31:28;;;;;;;2.57;1.50;;;20.00;70.40;;;-142.21;100.00;112049.66;5115540;28;20199;-71
2022/06/07 04:33:57;;;;;;;1.50;1.17;;;20.10;70.80;;;-142.21;100.00;112049.66;5115683;28;20449;-71
2022/06/07 04:36:27;;;;;;;1.13;1.03;;;20.10;70.90;;;-142.21;100.00;112049.66;5114842;28;20440;-72
2022/06/07 04:38:57;;;;;;;2.10;1.43;;;20.10;70.90;;;-142.21;100.00;112049.66;5115521;28;20214;-72
2022/06/07 04:41:26;;;;;;;2.50;1.17;;;20.10;70.80;;;-142.21;100.00;112049.66;5114702;28;20204;-72
2022/06/07 04:43:55;;;;;;;1.50;1.40;;;20.10;70.60;;;-142.21;100.00;112049.66;5115956;28;20204;-72
2022/06/07 04:46:24;;;;;;;1.87;1.67;;;20.10;70.80;;;-142.21;100.00;112049.66;5115426;28;20648;-72
2022/06/07 04:48:52;;;;;;;1.80;1.63;;;20.10;70.80;;;-142.21;100.00;112049.66;5115319;27;20199;-72
2022/06/07 04:51:27;;;;;;;3.00;1.50;;;20.10;70.90;;;-142.21;100.00;112049.66;5114500;28;20196;-72
2022/06/07 04:53:56;;;;;;;1.63;1.53;;;20.10;71.20;;;-142.21;100.00;112049.66;5114777;28;20625;-72
2022/06/07 04:56:28;;;;;;;3.20;1.90;;;20.00;71.10;;;-142.21;100.00;112049.66;5115010;28;20196;-72
2022/06/07 04:59:00;;;;;;;1.50;1.40;;;20.10;71.70;;;-142.21;100.00;112049.66;5114861;28;20682;-71
2022/06/07 05:01:30;;;;;;;2.50;1.37;;;20.10;72.60;;;-142.21;100.00;112049.66;5114564;28;20697;-71
2022/06/07 05:03:58;;;;;;;1.70;1.60;;;20.10;71.90;;;-142.21;100.00;112049.66;5113260;28;20528;-71
2022/06/07 05:06:28;;;;;;;1.40;1.30;;;20.10;71.90;;;-142.21;100.00;112049.66;5115027;28;20199;-71
2022/06/07 05:09:01;;;;;;;3.93;2.07;;;20.20;71.90;;;-142.21;100.00;112049.66;5114879;28;20510;-71
2022/06/07 05:11:30;;;;;;;2.40;1.87;;;20.30;71.90;;;-142.21;100.00;112049.66;5078348;28;20231;-72
2022/06/07 05:14:03;;;;;;;1.87;1.67;;;20.30;72.00;;;-142.21;100.00;112049.66;5114665;28;20208;-71
2022/06/07 05:16:31;;;;;;;2.97;1.63;;;20.20;71.90;;;-142.21;100.00;112049.66;5114366;28;20728;-71
2022/06/07 05:19:10;;;;;;;1.67;1.57;;;20.10;72.00;;;-142.21;100.00;112049.66;5113539;28;20196;-71
2022/06/07 05:21:38;;;;;;;1.40;1.30;;;20.00;72.30;;;-142.21;100.00;112049.66;5114756;28;20461;-71
2022/06/07 05:24:06;;;;;;;1.87;1.77;;;20.00;72.70;;;-142.21;100.00;112049.66;5095068;28;20205;-71
2022/06/07 05:26:43;;;;;;;2.57;2.03;;;19.90;72.50;;;-142.21;100.00;112049.66;5113932;28;20442;-71
2022/06/07 05:29:19;;;;;;;2.07;1.60;;;19.90;72.70;;;-142.21;100.00;112049.66;5113927;28;20196;-72
2022/06/07 05:31:47;;;;;;;2.00;1.80;;;20.00;72.80;;;-142.21;100.00;112049.66;5114181;28;20298;-72
2022/06/07 05:34:14;;;;;;;2.70;1.77;;;20.00;72.50;;;-142.21;100.00;112049.66;5113567;28;20636;-73
2022/06/07 05:36:41;;;;;;;1.70;1.50;;;20.00;72.20;;;-142.21;100.00;112049.66;5114213;28;20449;-73
2022/06/07 05:39:17;;;;;;;1.60;1.50;;;20.10;72.00;;;-142.21;100.00;112049.66;5113343;28;20650;-72
2022/06/07 05:41:45;;;;;;;2.33;1.60;;;20.30;71.60;;;-142.21;100.00;112049.66;5114038;28;20662;-72
2022/06/07 05:44:15;;;;;;;2.47;1.90;;;20.40;71.30;;;-142.21;100.00;112049.66;5113525;28;20566;-72
2022/06/07 05:46:42;;;;;;;4.33;1.63;;;20.50;71.40;;;-142.21;100.00;112049.66;5113031;28;20282;-73
2022/06/07 05:49:10;;;;;;;2.07;1.87;;;20.50;70.50;;;-142.21;100.00;112049.66;5113443;28;20934;-72
2022/06/07 05:51:37;;;;;;;2.20;2.00;;;20.60;70.40;;;-142.21;100.00;112049.66;5113961;28;20200;-72
2022/06/07 05:54:06;;;;;;;1.67;1.57;;;20.70;70.10;;;-142.21;100.00;112049.66;5113350;28;20200;-73
2022/06/07 05:56:34;;;;;;;2.17;1.60;;;20.70;70.10;;;-142.21;100.00;112049.66;5113950;28;20208;-72
2022/06/07 05:59:05;;;;;;;2.47;1.53;;;20.80;69.80;;;-142.21;100.00;112049.66;5113320;28;20196;-71
2022/06/07 06:01:33;;;;;;;1.60;1.50;;;20.90;69.60;;;-142.21;100.00;112049.66;5110834;28;20237;-71
2022/06/07 06:04:03;;;;;;;2.73;1.67;;;21.00;69.50;;;-142.21;99.82;112049.66;5110671;28;20207;-71
2022/06/07 06:06:31;;;;;;;1.60;1.50;;;21.00;68.90;;;-142.21;100.00;112049.66;5112856;28;20272;-71
2022/06/07 06:11:43;;;;;;;7.67;2.30;;;21.00;68.60;;;-142.21;99.70;112049.66;5113111;28;20238;-71
2022/06/07 06:14:12;;;;;;;2.53;1.70;;;21.00;68.80;;;-142.21;99.93;112049.66;5112696;28;20191;-71
2022/06/07 06:16:39;;;;;;;2.07;1.87;;;21.00;69.10;;;-142.21;99.76;112049.66;5113161;27;20230;-72
2022/06/07 06:19:07;;;;;;;2.03;1.60;;;21.00;69.20;;;-142.21;99.86;112049.66;5113848;28;20201;-72
2022/06/07 06:21:38;;;;;;;1.90;1.80;;;21.10;69.60;;;-142.21;99.27;112049.66;5108876;28;20655;-72
2022/06/07 06:24:09;;;;;;;3.20;2.37;;;21.10;69.10;;;-142.21;99.54;112049.66;5092932;28;20284;-72
2022/06/07 06:26:38;;;;;;;4.30;2.00;;;21.10;69.10;;;-142.21;99.22;112049.66;5112620;28;20234;-72
2022/06/07 06:29:08;;;;;;;3.47;2.23;;;21.10;68.90;;;-142.21;100.00;112049.66;5111778;28;20207;-72
2022/06/07 06:31:37;;;;;;;2.63;2.03;;;21.10;69.10;;;-142.21;99.41;112049.66;5108763;28;20235;-73
2022/06/07 06:34:06;;;;;;;3.43;2.20;;;21.10;68.50;;;-142.21;99.59;112049.66;5093216;28;20293;-72
2022/06/07 06:36:34;;;;;;;3.57;1.90;;;21.20;68.90;;;-142.21;99.68;112049.66;5101172;28;20200;-73
2022/06/07 06:39:01;;;;;;;3.40;2.10;;;21.20;68.80;;;-142.21;99.27;112049.66;5113682;28;20231;-73
2022/06/07 06:41:32;;;;;;;3.03;1.73;;;21.30;68.50;;;-142.21;99.87;112049.66;5112492;28;20334;-75
2022/06/07 06:44:01;;;;;;;2.07;1.80;;;21.30;68.80;;;-142.21;99.37;112049.66;5113104;28;20267;-74
2022/06/07 06:46:32;;;;;;;2.50;2.03;;;21.40;68.40;;;-142.21;99.42;112049.66;5113227;28;20532;-73
2022/06/07 06:49:01;;;;;;;2.47;2.00;;;21.40;68.50;;;-142.21;98.88;112049.66;5113311;28;20188;-74
2022/06/07 06:51:29;;;;;;;2.00;1.70;;;21.40;68.20;;;-142.21;98.61;112049.66;5112883;28;20547;-73
2022/06/07 06:53:58;;;;;;;2.37;2.07;;;21.40;68.00;;;-142.21;100.00;112049.66;5113369;28;20556;-74
2022/06/07 06:56:28;;;;;;;2.13;1.93;;;21.30;68.60;;;-142.21;99.25;112049.66;5112325;28;20702;-73
2022/06/07 06:58:55;;;;;;;3.10;2.50;;;21.30;68.40;;;-142.21;99.91;112049.66;5113414;28;20399;-74
2022/06/07 07:01:26;;;;;;;2.20;2.00;;;21.40;68.80;;;-142.21;100.00;112049.66;5111318;28;20210;-73
2022/06/07 07:03:54;;;;;;;2.53;2.33;;;21.40;68.70;;;-142.21;99.79;112049.66;5113418;28;20188;-74
2022/06/07 07:06:24;;;;;;;2.40;1.70;;;21.50;68.40;;;-142.21;99.44;112049.66;5112613;28;20210;-73
2022/06/07 07:08:52;;;;;;;2.07;1.87;;;21.40;68.20;;;-142.21;100.00;112049.66;5113008;28;20214;-73
2022/06/07 07:11:24;;;;;;;2.00;1.83;;;21.40;68.80;;;-142.21;99.40;112049.66;5111899;28;20239;-73
2022/06/07 07:13:55;;;;;;;3.03;2.13;;;21.50;68.40;;;-142.21;99.56;112049.66;5112327;28;20285;-73
2022/06/07 07:16:26;;;;;;;2.10;1.90;;;21.70;68.50;;;-142.21;98.07;112049.66;5113767;28;20310;-72
2022/06/07 07:18:54;;;;;;;2.87;1.97;;;21.80;67.70;;;-142.21;98.04;112049.66;5120068;28;20195;-72
2022/06/07 07:21:26;;;;;;;5.33;1.90;;;21.80;67.60;;;-142.21;97.94;112049.66;5118549;28;20245;-71
2022/06/07 07:23:54;;;;;;;2.37;1.80;;;22.00;67.50;;;-142.21;95.95;112049.66;5118612;28;20191;-72
2022/06/07 07:26:24;;;;;;;2.27;1.87;;;22.00;66.70;;;-142.21;96.02;112049.66;5118714;27;20203;-73
2022/06/07 07:28:53;;;;;;;1.67;1.57;;;21.90;66.60;;;-142.21;95.72;112049.66;5119352;28;20227;-72
2022/06/07 07:31:24;;;;;;;2.50;1.90;;;21.90;66.70;;;-142.21;91.91;112049.66;5118845;28;20663;-71
2022/06/07 07:33:52;;;;;;;4.17;2.30;;;22.00;64.80;;;-142.21;92.44;112049.66;5105661;28;20302;-73
2022/06/07 07:36:22;;;;;;;3.13;1.73;;;22.10;64.60;;;-142.21;92.19;112049.66;5118335;28;20639;-73
2022/06/07 07:38:49;;;;;;;2.37;1.60;;;22.20;64.50;;;-142.21;94.06;112049.66;5119424;28;20290;-73
2022/06/07 07:41:21;;;;;;;2.30;2.10;;;22.30;66.10;;;-142.21;92.77;112049.66;5119032;28;20203;-72
2022/06/07 07:43:50;;;;;;;2.70;1.90;;;22.40;64.70;;;-142.21;91.30;112049.66;5119114;28;20196;-71
2022/06/07 07:46:19;;;;;;;2.20;2.00;;;22.60;63.50;;;-142.21;91.22;112049.66;5118955;28;20206;-72
2022/06/07 07:48:47;;;;;;;2.80;1.70;;;22.60;63.50;;;-142.21;91.07;112049.66;5119340;28;20551;-73
2022/06/07 07:51:20;;;;;;;4.33;1.87;;;22.80;63.50;;;-142.21;88.63;112049.66;5119125;28;20203;-71
2022/06/07 07:53:49;;;;;;;2.97;1.80;;;22.90;62.00;;;-142.21;90.23;112049.66;5118558;27;20578;-72
2022/06/07 07:56:16;;;;;;;2.23;2.00;;;23.00;62.60;;;-142.21;90.47;112049.66;5119163;27;20236;-73
2022/06/07 07:58:44;;;;;;;1.80;1.70;;;23.00;62.50;;;-142.21;89.94;112049.66;5118555;28;20628;-73
2022/06/07 08:01:16;;;;;;;2.97;1.83;;;23.10;62.30;;;-142.21;87.83;112049.66;5118849;28;20207;-72
2022/06/07 08:03:44;;;;;;;2.83;2.30;;;23.00;61.00;;;-142.21;89.06;112049.66;5118811;28;20633;-72
2022/06/07 08:06:17;;;;;;;3.90;2.60;;;23.00;61.70;;;-142.21;89.49;112049.66;5118361;28;20196;-72
2022/06/07 08:08:46;;;;;;;3.23;2.57;;;23.00;61.70;;;-142.21;88.05;112049.66;5119202;28;20200;-72
2022/06/07 08:11:17;;;;;;;2.53;2.33;;;22.90;61.20;;;-142.21;88.38;112049.66;5118467;27;20235;-74
2022/06/07 08:13:45;;;;;;;3.10;2.80;;;22.80;61.10;;;-142.21;87.76;112049.66;5119214;28;20299;-72
2022/06/07 08:16:14;;;;;;;2.77;2.43;;;22.80;61.20;;;-142.21;86.64;112049.66;5115211;28;20210;-72
2022/06/07 08:18:42;;;;;;;2.60;1.93;;;22.90;60.80;;;-142.21;88.22;112049.66;5103636;27;20634;-72
2022/06/07 08:21:20;;;;;;;1.90;1.80;;;22.90;61.30;;;-142.21;87.56;112049.66;5106137;28;20197;-73
2022/06/07 08:23:52;;;;;;;2.20;1.97;;;23.10;61.20;;;-142.21;87.98;112049.66;5111519;27;20643;-72
2022/06/07 08:26:21;;;;;;;3.93;2.23;;;23.30;61.00;;;-142.21;88.12;112049.66;5118318;27;20591;-72
2022/06/07 08:28:48;;;;;;;2.33;2.10;;;23.20;61.80;;;-142.21;89.05;112049.66;5095959;28;20213;-74
2022/06/07 08:31:21;;;;;;;3.20;2.90;;;23.50;61.70;;;-142.21;84.93;112049.66;5095029;28;20208;-73
2022/06/07 08:39:23;;;;;;;2.23;2.00;;;23.80;60.00;;;-142.21;81.65;112049.66;5115287;28;20331;-73
2022/06/07 08:41:56;;;;;;;3.27;2.17;;;23.70;58.50;;;-142.21;80.16;112049.66;5115494;28;20216;-73
2022/06/07 08:44:30;;;;;;;2.10;1.80;;;23.60;58.00;;;-142.21;78.72;112049.66;5115077;28;20217;-71
2022/06/07 08:47:03;;;;;;;1.90;1.50;;;23.50;57.90;;;-142.21;78.43;112049.66;5115701;28;20193;-72
2022/06/07 08:49:30;;;;;;;1.40;1.30;;;23.70;58.00;;;-142.21;71.61;112049.66;5114436;28;20294;-72
2022/06/07 08:52:11;;;;;;;1.60;1.50;;;23.70;56.10;;;-142.21;74.58;112049.66;5115355;28;20196;-73
2022/06/07 08:54:41;;;;;;;1.37;1.27;;;23.80;56.60;;;-142.21;73.47;112049.66;5115045;28;20216;-73
2022/06/07 08:57:20;;;;;;;2.33;1.30;;;23.80;56.40;;;-142.21;73.01;112049.66;5114883;28;20202;-72
2022/06/07 08:59:49;;;;;;;1.67;1.50;;;24.00;55.90;;;-142.21;73.36;112049.66;5115149;28;20196;-73
2022/06/07 09:02:45;;;;;;;1.93;1.40;;;24.00;56.20;;;-142.21;73.10;112049.66;5114573;28;20299;-72
2022/06/07 09:05:15;;;;;;;1.87;1.43;;;24.10;55.70;;;-142.21;71.82;112049.66;5114543;28;20237;-73
2022/06/07 09:07:43;;;;;;;2.00;1.70;;;24.10;55.60;;;-142.21;68.62;112049.66;5115457;28;20750;-73
2022/06/07 09:13:05;;;;;;;1.77;1.30;;;24.20;55.40;;;-142.21;63.31;112049.66;5115117;28;20202;-73
2022/06/07 09:15:36;;;;;;;1.53;1.40;;;24.30;53.30;;;-142.21;65.67;112049.66;5114748;28;20216;-73
2022/06/07 09:18:09;;;;;;;1.37;1.27;;;24.30;54.30;;;-142.21;64.10;112049.66;5095463;28;20199;-72
2022/06/07 09:20:42;;;;;;;1.23;1.13;;;24.30;53.70;;;-142.21;61.57;112049.66;5099118;28;20222;-73
2022/06/07 09:23:17;;;;;;;1.97;1.40;;;24.40;53.30;;;-142.21;58.33;112049.66;5105966;28;20187;-72
2022/06/07 09:25:48;;;;;;;2.20;1.50;;;24.30;51.50;;;-142.21;61.75;112049.66;5107634;28;20184;-72
2022/06/07 09:28:23;;;;;;;1.30;1.20;;;24.40;52.90;;;-142.21;64.57;112049.66;5114284;28;20182;-72
2022/06/07 09:31:01;;;;;;;1.63;1.40;;;24.40;53.50;;;-142.21;62.87;112049.66;5114740;28;20226;-72
2022/06/07 09:33:33;;;;;;;2.07;1.83;;;24.40;53.20;;;-142.21;66.47;112049.66;5114279;28;20211;-72
2022/06/07 09:36:07;;;;;;;2.10;1.90;;;24.50;54.00;;;-142.21;63.23;112049.66;5114070;28;20649;-72
2022/06/07 09:38:41;;;;;;;1.50;1.40;;;24.50;52.80;;;-142.21;66.86;112049.66;5113939;28;20286;-72
2022/06/07 09:41:39;;;;;;;1.40;1.30;;;24.50;53.90;;;-142.21;68.60;112049.66;5113557;28;20192;-72
2022/06/07 09:44:21;;;;;;;2.97;1.77;;;24.60;54.30;;;-142.21;67.94;112049.66;5114297;28;20199;-73
2022/06/07 09:46:57;;;;;;;1.83;1.53;;;24.70;54.20;;;-142.21;66.17;112049.66;5114008;28;20305;-73
2022/06/07 09:49:40;;;;;;;1.53;1.43;;;24.90;53.90;;;-142.21;66.02;112049.66;5113565;28;20194;-72
2022/06/07 09:52:20;;;;;;;1.30;1.20;;;25.00;53.50;;;-142.21;61.88;112049.66;5095321;28;20199;-72
2022/06/07 09:54:55;;;;;;;1.90;1.40;;;25.00;52.60;;;-142.21;61.00;112049.66;5107997;28;20208;-72
2022/06/07 09:57:37;;;;;;;1.57;1.27;;;24.90;52.10;;;-142.21;62.11;112049.66;5093255;28;20203;-71
2022/06/07 10:00:31;;;;;;;3.87;2.20;;;24.80;52.20;;;-142.21;62.46;112049.66;5102587;28;20271;-72
2022/06/07 10:03:29;;;;;;;3.07;1.47;;;24.80;52.70;;;-142.21;65.21;112049.66;5113751;28;20686;-72
2022/06/07 10:06:14;;;;;;;1.40;1.20;;;24.80;53.70;;;-142.21;62.42;112049.66;5114526;28;20183;-73
2022/06/07 10:09:07;;;;;;;3.87;1.60;;;24.90;53.10;;;-142.21;60.50;112049.66;5114129;28;20235;-72
2022/06/07 10:11:42;;;;;;;2.30;1.50;;;24.90;52.30;;;-142.21;60.03;112049.66;5113177;28;20382;-74
2022/06/07 10:14:33;;;;;;;2.87;1.30;;;24.80;52.50;;;-142.21;58.80;112049.66;5113851;28;20303;-72
2022/06/07 10:17:42;;;;;;;1.80;1.03;;;24.70;51.70;;;-142.21;60.60;112049.66;5116109;28;20306;-72
2022/06/07 10:20:23;;;;;;;1.93;1.50;;;24.90;52.20;;;-142.21;59.86;112049.66;5112136;28;20199;-71
2022/06/07 10:23:37;;;;;;;0.93;0.93;;;24.90;52.20;;;-142.21;57.04;112049.66;5077653;28;20235;-72
2022/06/07 10:26:26;;;;;;;1.53;1.30;;;25.00;50.70;;;-142.21;55.88;112049.66;5113649;28;20195;-71
2022/06/07 10:29:14;;;;;;;1.17;0.80;;;25.20;50.80;;;-142.21;55.33;112049.66;5113579;28;20223;-73